createdAt,value
2019-04-16T00:00:25.176Z,0.00
2019-04-16T00:01:25.236Z,0.00
2019-04-16T00:02:25.284Z,0.00
2019-04-16T00:03:25.338Z,0.00
2019-04-16T00:04:25.602Z,0.00
2019-04-16T00:05:27.717Z,0.00
2019-04-16T00:06:25.500Z,0.00
2019-04-16T00:07:25.554Z,0.00
2019-04-16T00:08:27.723Z,0.00
2019-04-16T00:09:25.666Z,0.00
2019-04-16T00:10:26.216Z,0.00
2019-04-16T00:11:26.322Z,0.00
2019-04-16T00:12:25.824Z,0.00
2019-04-16T00:13:26.414Z,0.00
2019-04-16T00:14:25.931Z,0.00
2019-04-16T00:15:25.985Z,0.00
2019-04-16T00:16:26.039Z,0.00
2019-04-16T00:17:26.093Z,0.00
2019-04-16T00:18:26.150Z,0.00
2019-04-16T00:19:26.201Z,0.00
2019-04-16T00:20:26.254Z,0.00
2019-04-16T00:21:26.309Z,0.00
2019-04-16T00:22:26.361Z,0.00
2019-04-16T00:23:26.413Z,0.00
2019-04-16T00:24:26.468Z,0.00
2019-04-16T00:25:26.530Z,0.00
2019-04-16T00:26:27.492Z,0.00
2019-04-16T00:27:28.708Z,0.00
2019-04-16T00:28:30.517Z,0.00
2019-04-16T00:29:26.740Z,0.00
2019-04-16T00:30:26.792Z,0.00
2019-04-16T00:31:26.846Z,0.00
2019-04-16T00:32:26.897Z,0.00
2019-04-16T00:33:26.951Z,0.00
2019-04-16T00:34:27.003Z,0.00
2019-04-16T00:35:27.056Z,0.00
2019-04-16T00:36:27.110Z,0.00
2019-04-16T00:37:27.170Z,0.00
2019-04-16T00:38:39.795Z,0.00
2019-04-16T00:39:27.272Z,0.00
2019-04-16T00:40:27.380Z,0.00
2019-04-16T00:41:27.382Z,0.00
2019-04-16T00:42:27.434Z,0.00
2019-04-16T00:43:27.485Z,0.00
2019-04-16T00:44:27.539Z,0.00
2019-04-16T00:45:27.593Z,0.00
2019-04-16T00:46:27.650Z,0.00
2019-04-16T00:47:27.699Z,0.00
2019-04-16T00:48:27.755Z,0.00
2019-04-16T00:49:27.810Z,0.00
2019-04-16T00:50:27.859Z,0.00
2019-04-16T00:51:27.912Z,0.00
2019-04-16T00:52:27.970Z,0.00
2019-04-16T00:53:28.020Z,0.00
2019-04-16T00:54:28.081Z,0.00
2019-04-16T00:55:28.125Z,0.00
2019-04-16T00:56:28.180Z,0.00
2019-04-16T00:57:28.240Z,0.00
2019-04-16T00:58:28.286Z,0.00
2019-04-16T00:59:28.343Z,0.00
2019-04-16T01:00:30.630Z,0.00
2019-04-16T01:01:28.447Z,0.00
2019-04-16T01:02:28.499Z,0.00
2019-04-16T01:03:28.552Z,0.00
2019-04-16T01:04:28.606Z,0.00
2019-04-16T01:05:28.663Z,0.00
2019-04-16T01:06:28.719Z,0.00
2019-04-16T01:07:28.765Z,0.00
2019-04-16T01:08:28.822Z,0.00
2019-04-16T01:09:28.872Z,0.00
2019-04-16T01:10:28.926Z,0.00
2019-04-16T01:11:28.979Z,0.00
2019-04-16T01:12:29.031Z,0.00
2019-04-16T01:13:29.084Z,0.00
2019-04-16T01:14:29.145Z,0.00
2019-04-16T01:15:31.894Z,0.00
2019-04-16T01:16:30.343Z,0.00
2019-04-16T01:17:29.298Z,0.00
2019-04-16T01:18:29.354Z,0.00
2019-04-16T01:19:29.404Z,0.00
2019-04-16T01:20:29.456Z,0.00
2019-04-16T01:21:29.511Z,0.00
2019-04-16T01:22:29.564Z,0.00
2019-04-16T01:23:29.616Z,0.00
2019-04-16T01:24:29.669Z,0.00
2019-04-16T01:25:29.723Z,0.00
2019-04-16T01:26:29.779Z,0.00
2019-04-16T01:27:29.834Z,0.00
2019-04-16T01:28:31.976Z,0.00
2019-04-16T01:29:33.618Z,0.00
2019-04-16T01:30:29.991Z,0.00
2019-04-16T01:31:30.044Z,0.00
2019-04-16T01:32:30.094Z,0.00
2019-04-16T01:33:30.151Z,0.00
2019-04-16T01:34:30.200Z,0.00
2019-04-16T01:35:30.254Z,0.00
2019-04-16T01:36:30.306Z,0.00
2019-04-16T01:37:30.359Z,0.00
2019-04-16T01:38:30.412Z,0.00
2019-04-16T01:39:30.463Z,0.00
2019-04-16T01:40:30.521Z,0.00
2019-04-16T01:41:30.574Z,0.00
2019-04-16T01:42:30.635Z,0.00
2019-04-16T01:43:30.676Z,0.00
2019-04-16T01:44:30.730Z,0.00
2019-04-16T01:45:30.783Z,0.00
2019-04-16T01:46:33.010Z,0.00
2019-04-16T01:47:35.786Z,0.00
2019-04-16T01:48:30.943Z,0.00
2019-04-16T01:49:30.993Z,0.00
2019-04-16T01:50:31.047Z,0.00
2019-04-16T01:51:31.102Z,0.00
2019-04-16T01:52:31.153Z,0.00
2019-04-16T01:53:31.206Z,0.00
2019-04-16T01:54:31.260Z,0.00
2019-04-16T01:55:31.311Z,0.00
2019-04-16T01:56:31.363Z,0.00
2019-04-16T01:57:31.422Z,0.00
2019-04-16T01:58:33.824Z,0.00
2019-04-16T01:59:35.560Z,0.00
2019-04-16T02:00:32.163Z,0.00
2019-04-16T02:01:35.651Z,0.00
2019-04-16T02:02:32.549Z,0.00
2019-04-16T02:03:31.736Z,0.00
2019-04-16T02:04:31.790Z,0.00
2019-04-16T02:05:31.840Z,0.00
2019-04-16T02:06:31.892Z,0.00
2019-04-16T02:07:31.944Z,0.00
2019-04-16T02:08:32.009Z,0.00
2019-04-16T02:09:34.737Z,0.00
2019-04-16T02:10:32.609Z,0.00
2019-04-16T02:11:32.724Z,0.00
2019-04-16T02:12:32.816Z,0.00
2019-04-16T02:13:32.786Z,0.00
2019-04-16T02:14:32.314Z,0.00
2019-04-16T02:15:32.370Z,0.00
2019-04-16T02:16:32.419Z,0.00
2019-04-16T02:17:32.473Z,0.00
2019-04-16T02:18:32.525Z,0.00
2019-04-16T02:19:33.504Z,0.00
2019-04-16T02:20:32.631Z,0.00
2019-04-16T02:21:32.689Z,0.00
2019-04-16T02:22:32.737Z,0.00
2019-04-16T02:23:32.794Z,0.00
2019-04-16T02:24:32.842Z,0.00
2019-04-16T02:25:32.898Z,0.00
2019-04-16T02:26:32.946Z,0.00
2019-04-16T02:27:33.003Z,0.00
2019-04-16T02:28:33.052Z,0.00
2019-04-16T02:29:33.108Z,0.00
2019-04-16T02:30:37.359Z,0.00
2019-04-16T02:31:33.214Z,0.00
2019-04-16T02:32:33.265Z,0.00
2019-04-16T02:33:33.354Z,0.00
2019-04-16T02:34:33.368Z,0.00
2019-04-16T02:35:33.422Z,0.00
2019-04-16T02:36:33.481Z,0.00
2019-04-16T02:37:36.315Z,0.00
2019-04-16T02:38:33.579Z,0.00
2019-04-16T02:39:47.513Z,0.00
2019-04-16T02:40:33.684Z,0.00
2019-04-16T02:41:33.745Z,0.00
2019-04-16T02:42:33.793Z,0.00
2019-04-16T02:43:39.597Z,0.00
2019-04-16T02:44:33.895Z,0.00
2019-04-16T02:45:33.946Z,0.00
2019-04-16T02:46:34.000Z,0.00
2019-04-16T02:47:40.225Z,0.00
2019-04-16T02:48:34.108Z,0.00
2019-04-16T02:49:34.157Z,0.00
2019-04-16T02:50:34.208Z,0.00
2019-04-16T02:51:39.546Z,0.00
2019-04-16T02:52:34.313Z,0.00
2019-04-16T02:53:34.364Z,0.00
2019-04-16T02:54:34.653Z,0.00
2019-04-16T02:55:34.471Z,0.00
2019-04-16T02:56:34.521Z,0.00
2019-04-16T02:57:34.575Z,0.00
2019-04-16T02:58:35.334Z,0.00
2019-04-16T02:59:34.680Z,0.00
2019-04-16T03:00:34.732Z,0.00
2019-04-16T03:01:34.783Z,0.00
2019-04-16T03:02:34.844Z,0.00
2019-04-16T03:03:34.887Z,0.00
2019-04-16T03:04:34.940Z,0.00
2019-04-16T03:05:34.992Z,0.00
2019-04-16T03:06:35.043Z,0.00
2019-04-16T03:07:35.096Z,0.00
2019-04-16T03:08:36.135Z,0.00
2019-04-16T03:09:39.827Z,0.00
2019-04-16T03:10:35.253Z,0.00
2019-04-16T03:11:35.306Z,0.00
2019-04-16T03:12:35.360Z,0.00
2019-04-16T03:13:35.417Z,0.00
2019-04-16T03:14:35.464Z,0.00
2019-04-16T03:15:35.520Z,0.00
2019-04-16T03:16:37.920Z,0.00
2019-04-16T03:17:35.620Z,0.00
2019-04-16T03:18:35.670Z,0.00
2019-04-16T03:19:38.785Z,0.00
2019-04-16T03:20:35.780Z,0.00
2019-04-16T03:21:35.828Z,0.00
2019-04-16T03:22:35.880Z,0.00
2019-04-16T03:23:37.597Z,0.00
2019-04-16T03:24:37.508Z,0.00
2019-04-16T03:25:36.039Z,0.00
2019-04-16T03:26:36.089Z,0.00
2019-04-16T03:27:36.140Z,0.00
2019-04-16T03:28:36.193Z,0.00
2019-04-16T03:29:36.246Z,0.00
2019-04-16T03:30:42.275Z,0.00
2019-04-16T03:31:36.354Z,0.00
2019-04-16T03:32:36.492Z,0.00
2019-04-16T03:33:36.454Z,0.00
2019-04-16T03:34:36.506Z,0.00
2019-04-16T03:35:36.557Z,0.00
2019-04-16T03:36:36.610Z,0.00
2019-04-16T03:37:36.677Z,0.00
2019-04-16T03:38:39.994Z,0.00
2019-04-16T03:39:36.769Z,0.00
2019-04-16T03:40:36.819Z,0.00
2019-04-16T03:41:36.871Z,0.00
2019-04-16T03:42:36.923Z,0.00
2019-04-16T03:43:36.976Z,0.00
2019-04-16T03:44:37.556Z,0.00
2019-04-16T03:45:37.547Z,0.00
2019-04-16T03:46:39.891Z,0.00
2019-04-16T03:47:37.183Z,0.00
2019-04-16T03:48:37.235Z,0.00
2019-04-16T03:49:37.293Z,0.00
2019-04-16T03:50:37.340Z,0.00
2019-04-16T03:51:37.394Z,0.00
2019-04-16T03:52:40.843Z,0.00
2019-04-16T03:53:37.498Z,0.00
2019-04-16T03:54:37.607Z,0.00
2019-04-16T03:55:37.602Z,0.00
2019-04-16T03:56:37.653Z,0.00
2019-04-16T03:57:37.706Z,0.00
2019-04-16T03:58:38.557Z,0.00
2019-04-16T03:59:40.078Z,0.00
2019-04-16T04:00:43.659Z,0.00
2019-04-16T04:01:38.509Z,0.00
2019-04-16T04:02:38.503Z,0.00
2019-04-16T04:03:38.653Z,0.00
2019-04-16T04:04:38.814Z,0.00
2019-04-16T04:05:38.645Z,0.00
2019-04-16T04:06:39.628Z,0.00
2019-04-16T04:07:38.225Z,0.00
2019-04-16T04:08:38.278Z,0.00
2019-04-16T04:09:38.334Z,0.00
2019-04-16T04:10:38.382Z,0.00
2019-04-16T04:11:41.161Z,0.00
2019-04-16T04:12:38.486Z,0.00
2019-04-16T04:13:38.540Z,0.00
2019-04-16T04:14:38.592Z,0.00
2019-04-16T04:15:38.645Z,0.00
2019-04-16T04:16:38.695Z,0.00
2019-04-16T04:17:39.611Z,0.00
2019-04-16T04:18:42.877Z,0.00
2019-04-16T04:19:38.853Z,0.00
2019-04-16T04:20:38.901Z,0.00
2019-04-16T04:21:38.957Z,0.00
2019-04-16T04:22:39.005Z,0.00
2019-04-16T04:23:39.057Z,0.00
2019-04-16T04:24:39.111Z,0.00
2019-04-16T04:25:39.162Z,0.00
2019-04-16T04:26:42.236Z,0.00
2019-04-16T04:27:39.266Z,0.00
2019-04-16T04:28:39.316Z,0.00
2019-04-16T04:29:39.370Z,5.63
2019-04-16T04:30:39.436Z,5.63
2019-04-16T04:31:39.473Z,5.63
2019-04-16T04:32:39.523Z,5.63
2019-04-16T04:33:42.687Z,5.63
2019-04-16T04:34:39.845Z,5.63
2019-04-16T04:35:39.698Z,5.63
2019-04-16T04:36:39.765Z,11.25
2019-04-16T04:37:39.816Z,11.25
2019-04-16T04:38:39.895Z,11.25
2019-04-16T04:39:43.629Z,11.25
2019-04-16T04:40:44.827Z,11.25
2019-04-16T04:41:39.989Z,16.88
2019-04-16T04:42:40.042Z,16.88
2019-04-16T04:43:40.099Z,16.88
2019-04-16T04:44:40.191Z,16.88
2019-04-16T04:45:40.827Z,22.50
2019-04-16T04:46:43.268Z,22.50
2019-04-16T04:47:40.302Z,22.50
2019-04-16T04:48:40.360Z,28.13
2019-04-16T04:49:40.405Z,28.13
2019-04-16T04:50:40.455Z,28.13
2019-04-16T04:51:43.444Z,33.75
2019-04-16T04:52:40.560Z,33.75
2019-04-16T04:53:40.611Z,33.75
2019-04-16T04:54:40.662Z,39.38
2019-04-16T04:55:40.714Z,39.38
2019-04-16T04:56:40.766Z,39.38
2019-04-16T04:57:40.821Z,45.00
2019-04-16T04:58:40.869Z,45.00
2019-04-16T04:59:40.921Z,45.00
2019-04-16T05:00:41.200Z,50.63
2019-04-16T05:01:42.082Z,50.63
2019-04-16T05:02:43.806Z,50.63
2019-04-16T05:03:41.136Z,56.25
2019-04-16T05:04:41.179Z,56.25
2019-04-16T05:05:41.231Z,56.25
2019-04-16T05:06:41.282Z,56.25
2019-04-16T05:07:41.371Z,61.88
2019-04-16T05:08:41.387Z,61.88
2019-04-16T05:09:41.440Z,61.88
2019-04-16T05:10:43.306Z,67.50
2019-04-16T05:11:41.543Z,67.50
2019-04-16T05:12:41.596Z,67.50
2019-04-16T05:13:41.679Z,73.13
2019-04-16T05:14:41.697Z,73.13
2019-04-16T05:15:41.750Z,73.13
2019-04-16T05:16:41.804Z,78.75
2019-04-16T05:17:41.854Z,78.75
2019-04-16T05:18:42.662Z,78.75
2019-04-16T05:19:43.733Z,84.38
2019-04-16T05:20:46.775Z,84.38
2019-04-16T05:21:42.062Z,84.38
2019-04-16T05:22:42.114Z,84.38
2019-04-16T05:23:42.165Z,90.00
2019-04-16T05:24:42.236Z,90.00
2019-04-16T05:25:42.272Z,90.00
2019-04-16T05:26:42.322Z,95.63
2019-04-16T05:27:42.372Z,95.63
2019-04-16T05:28:45.342Z,95.63
2019-04-16T05:29:42.498Z,101.25
2019-04-16T05:30:42.529Z,101.25
2019-04-16T05:31:42.581Z,101.25
2019-04-16T05:32:42.632Z,101.25
2019-04-16T05:33:42.684Z,101.25
2019-04-16T05:34:42.763Z,106.88
2019-04-16T05:35:42.789Z,106.88
2019-04-16T05:36:46.573Z,106.88
2019-04-16T05:37:42.891Z,112.50
2019-04-16T05:38:42.943Z,112.50
2019-04-16T05:39:42.995Z,112.50
2019-04-16T05:40:43.048Z,112.50
2019-04-16T05:41:43.099Z,112.50
2019-04-16T05:42:43.151Z,118.13
2019-04-16T05:43:43.205Z,118.13
2019-04-16T05:44:43.256Z,118.13
2019-04-16T05:45:43.308Z,118.13
2019-04-16T05:46:46.628Z,123.75
2019-04-16T05:47:43.416Z,123.75
2019-04-16T05:48:43.464Z,123.75
2019-04-16T05:49:43.516Z,123.75
2019-04-16T05:50:43.569Z,129.38
2019-04-16T05:51:43.620Z,129.38
2019-04-16T05:52:43.680Z,129.38
2019-04-16T05:53:43.725Z,129.38
2019-04-16T05:54:44.330Z,135.00
2019-04-16T05:55:43.831Z,135.00
2019-04-16T05:56:43.886Z,135.00
2019-04-16T05:57:43.939Z,135.00
2019-04-16T05:58:43.985Z,135.00
2019-04-16T05:59:44.038Z,140.63
2019-04-16T06:00:44.090Z,140.63
2019-04-16T06:01:45.527Z,140.63
2019-04-16T06:02:44.550Z,140.63
2019-04-16T06:03:44.247Z,140.63
2019-04-16T06:04:44.301Z,140.63
2019-04-16T06:05:44.353Z,146.25
2019-04-16T06:06:44.408Z,146.25
2019-04-16T06:07:44.458Z,146.25
2019-04-16T06:08:44.515Z,151.88
2019-04-16T06:09:45.304Z,151.88
2019-04-16T06:10:49.706Z,151.88
2019-04-16T06:11:44.668Z,151.88
2019-04-16T06:12:44.722Z,151.88
2019-04-16T06:13:45.236Z,157.50
2019-04-16T06:14:46.471Z,157.50
2019-04-16T06:15:44.879Z,157.50
2019-04-16T06:16:44.933Z,157.50
2019-04-16T06:17:44.984Z,163.13
2019-04-16T06:18:45.036Z,163.13
2019-04-16T06:19:46.727Z,163.13
2019-04-16T06:20:45.142Z,163.13
2019-04-16T06:21:45.199Z,163.13
2019-04-16T06:22:45.249Z,163.13
2019-04-16T06:23:48.141Z,163.13
2019-04-16T06:24:45.356Z,163.13
2019-04-16T06:25:45.409Z,163.13
2019-04-16T06:26:47.533Z,168.75
2019-04-16T06:27:45.546Z,168.75
2019-04-16T06:28:45.569Z,168.75
2019-04-16T06:29:47.183Z,168.75
2019-04-16T06:30:45.674Z,168.75
2019-04-16T06:31:45.736Z,174.38
2019-04-16T06:32:45.783Z,174.38
2019-04-16T06:33:45.832Z,180.00
2019-04-16T06:34:46.661Z,180.00
2019-04-16T06:35:45.938Z,185.63
2019-04-16T06:36:45.995Z,180.00
2019-04-16T06:37:46.047Z,180.00
2019-04-16T06:38:46.102Z,185.63
2019-04-16T06:39:46.152Z,185.63
2019-04-16T06:40:46.204Z,185.63
2019-04-16T06:41:48.434Z,185.63
2019-04-16T06:42:46.325Z,180.00
2019-04-16T06:43:46.365Z,180.00
2019-04-16T06:44:46.418Z,180.00
2019-04-16T06:45:46.473Z,185.63
2019-04-16T06:46:46.524Z,185.63
2019-04-16T06:47:46.578Z,185.63
2019-04-16T06:48:46.770Z,185.63
2019-04-16T06:49:48.214Z,185.63
2019-04-16T06:50:47.852Z,185.63
2019-04-16T06:51:47.482Z,191.25
2019-04-16T06:52:48.974Z,191.25
2019-04-16T06:53:46.899Z,191.25
2019-04-16T06:54:46.951Z,191.25
2019-04-16T06:55:47.006Z,196.88
2019-04-16T06:56:50.206Z,196.88
2019-04-16T06:57:47.465Z,196.88
2019-04-16T06:58:51.358Z,202.50
2019-04-16T06:59:47.220Z,202.50
2019-04-16T07:00:47.273Z,202.50
2019-04-16T07:01:47.328Z,202.50
2019-04-16T07:03:01.722Z,202.50
2019-04-16T07:03:48.084Z,202.50
2019-04-16T07:04:47.502Z,202.50
2019-04-16T07:05:47.544Z,202.50
2019-04-16T07:06:47.596Z,202.50
2019-04-16T07:07:47.664Z,202.50
2019-04-16T07:08:50.041Z,202.50
2019-04-16T07:09:47.759Z,202.50
2019-04-16T07:10:48.320Z,208.13
2019-04-16T07:11:54.189Z,208.13
2019-04-16T07:12:48.308Z,208.13
2019-04-16T07:13:48.035Z,208.13
2019-04-16T07:14:49.034Z,202.50
2019-04-16T07:15:48.082Z,202.50
2019-04-16T07:18:02.573Z,208.13
2019-04-16T07:19:01.847Z,208.13
2019-04-16T07:20:04.717Z,208.13
2019-04-16T07:21:01.955Z,213.75
2019-04-16T07:22:02.009Z,213.75
2019-04-16T07:23:02.076Z,213.75
2019-04-16T07:24:02.185Z,213.75
2019-04-16T07:25:04.438Z,213.75
2019-04-16T07:26:03.713Z,213.75
2019-04-16T07:27:02.381Z,219.38
2019-04-16T07:28:02.335Z,219.38
2019-04-16T07:29:02.589Z,219.38
2019-04-16T07:30:06.734Z,219.38
2019-04-16T07:31:02.864Z,225.00
2019-04-16T07:32:02.568Z,225.00
2019-04-16T07:33:02.610Z,230.63
2019-04-16T07:34:02.661Z,230.63
2019-04-16T07:35:02.711Z,230.63
2019-04-16T07:36:02.767Z,230.63
2019-04-16T07:37:02.824Z,230.63
2019-04-16T07:38:05.685Z,230.63
2019-04-16T07:39:05.061Z,230.63
2019-04-16T07:40:08.635Z,230.63
2019-04-16T07:41:03.041Z,230.63
2019-04-16T07:42:10.529Z,230.63
2019-04-16T07:43:03.476Z,230.63
2019-04-16T07:44:08.074Z,230.63
2019-04-16T07:45:03.261Z,230.63
2019-04-16T07:46:03.314Z,236.25
2019-04-16T07:47:03.370Z,236.25
2019-04-16T07:48:06.131Z,241.88
2019-04-16T07:49:03.485Z,241.88
2019-04-16T07:50:03.536Z,241.88
2019-04-16T07:51:04.821Z,241.88
2019-04-16T07:52:07.014Z,241.88
2019-04-16T07:53:03.702Z,241.88
2019-04-16T07:54:03.757Z,253.13
2019-04-16T07:55:03.821Z,247.50
2019-04-16T07:56:03.868Z,247.50
2019-04-16T07:57:03.928Z,247.50
2019-04-16T07:58:03.982Z,247.50
2019-04-16T07:59:04.035Z,253.13
2019-04-16T08:00:08.267Z,253.13
2019-04-16T08:01:04.149Z,253.13
2019-04-16T08:02:04.201Z,253.13
2019-04-16T08:03:04.259Z,253.13
2019-04-16T08:04:04.315Z,247.50
2019-04-16T08:05:07.457Z,247.50
2019-04-16T08:06:04.426Z,247.50
2019-04-16T08:07:04.482Z,253.13
2019-04-16T08:08:04.555Z,258.75
2019-04-16T08:09:04.617Z,258.75
2019-04-16T08:10:04.648Z,258.75
2019-04-16T08:11:04.704Z,258.75
2019-04-16T08:12:04.944Z,264.38
2019-04-16T08:13:04.818Z,258.75
2019-04-16T08:14:10.208Z,258.75
2019-04-16T08:15:13.963Z,258.75
2019-04-16T08:16:04.985Z,264.38
2019-04-16T08:17:05.121Z,258.75
2019-04-16T08:18:05.097Z,253.13
2019-04-16T08:19:05.155Z,270.00
2019-04-16T08:20:05.228Z,270.00
2019-04-16T08:21:10.551Z,270.00
2019-04-16T08:22:05.358Z,270.00
2019-04-16T08:23:05.380Z,270.00
2019-04-16T08:24:05.436Z,270.00
2019-04-16T08:25:05.501Z,275.63
2019-04-16T08:26:11.324Z,275.63
2019-04-16T08:27:09.891Z,275.63
2019-04-16T08:28:07.475Z,275.63
2019-04-16T08:29:05.718Z,275.63
2019-04-16T08:30:05.774Z,275.63
2019-04-16T08:31:10.934Z,275.63
2019-04-16T08:32:05.931Z,275.63
2019-04-16T08:33:05.946Z,275.63
2019-04-16T08:34:06.311Z,281.25
2019-04-16T08:35:06.058Z,286.88
2019-04-16T08:36:06.123Z,281.25
2019-04-16T08:37:08.518Z,281.25
2019-04-16T08:38:06.229Z,281.25
2019-04-16T08:39:07.517Z,281.25
2019-04-16T08:40:08.813Z,281.25
2019-04-16T08:41:06.400Z,281.25
2019-04-16T08:42:06.455Z,286.88
2019-04-16T08:43:06.826Z,286.88
2019-04-16T08:44:09.624Z,292.50
2019-04-16T08:45:08.437Z,292.50
2019-04-16T08:46:09.963Z,298.13
2019-04-16T08:47:11.498Z,298.13
2019-04-16T08:48:09.063Z,298.13
2019-04-16T08:49:06.855Z,298.13
2019-04-16T08:50:06.913Z,303.75
2019-04-16T08:51:06.970Z,303.75
2019-04-16T08:52:09.948Z,303.75
2019-04-16T08:53:07.086Z,303.75
2019-04-16T08:54:07.282Z,309.38
2019-04-16T08:55:07.200Z,309.38
2019-04-16T08:56:08.014Z,309.38
2019-04-16T08:57:07.318Z,315.00
2019-04-16T08:58:07.610Z,320.63
2019-04-16T08:59:10.214Z,326.25
2019-04-16T09:00:07.487Z,331.88
2019-04-16T09:01:07.739Z,331.88
2019-04-16T09:02:07.602Z,331.88
2019-04-16T09:03:07.659Z,331.88
2019-04-16T09:04:07.718Z,331.88
2019-04-16T09:05:11.328Z,331.88
2019-04-16T09:06:13.236Z,331.88
2019-04-16T09:07:12.016Z,331.88
2019-04-16T09:08:13.399Z,331.88
2019-04-16T09:09:13.461Z,337.50
2019-04-16T09:10:17.047Z,337.50
2019-04-16T09:11:21.756Z,343.13
2019-04-16T09:12:09.626Z,354.38
2019-04-16T09:13:08.401Z,365.63
2019-04-16T09:14:08.620Z,371.25
2019-04-16T09:15:08.363Z,376.88
2019-04-16T09:16:10.605Z,382.50
2019-04-16T09:17:09.940Z,388.13
2019-04-16T09:18:08.528Z,388.13
2019-04-16T09:19:08.585Z,410.63
2019-04-16T09:20:08.645Z,421.88
2019-04-16T09:21:10.562Z,444.38
2019-04-16T09:22:08.760Z,466.88
2019-04-16T09:23:08.883Z,466.88
2019-04-16T09:24:09.954Z,472.50
2019-04-16T09:25:13.932Z,478.13
2019-04-16T09:26:14.213Z,478.13
2019-04-16T09:27:12.443Z,478.13
2019-04-16T09:28:23.845Z,478.13
2019-04-16T09:29:10.334Z,478.13
2019-04-16T09:30:11.005Z,472.50
2019-04-16T09:31:09.288Z,472.50
2019-04-16T09:32:09.347Z,472.50
2019-04-16T09:33:09.407Z,466.88
2019-04-16T09:34:09.962Z,472.50
2019-04-16T09:35:11.316Z,472.50
2019-04-16T09:36:09.713Z,466.88
2019-04-16T09:37:09.954Z,461.25
2019-04-16T09:38:13.183Z,450.00
2019-04-16T09:39:09.768Z,438.75
2019-04-16T09:40:16.651Z,433.13
2019-04-16T09:41:09.881Z,433.13
2019-04-16T09:42:09.938Z,421.88
2019-04-16T09:43:16.613Z,421.88
2019-04-16T09:44:10.056Z,421.88
2019-04-16T09:45:10.117Z,421.88
2019-04-16T09:46:17.544Z,421.88
2019-04-16T09:47:10.238Z,421.88
2019-04-16T09:48:10.608Z,421.88
2019-04-16T09:49:10.355Z,421.88
2019-04-16T09:50:11.568Z,421.88
2019-04-16T09:51:10.475Z,421.88
2019-04-16T09:52:10.532Z,427.50
2019-04-16T09:53:10.592Z,427.50
2019-04-16T09:54:13.452Z,433.13
2019-04-16T09:55:10.710Z,438.75
2019-04-16T09:56:11.081Z,444.38
2019-04-16T09:57:10.829Z,450.00
2019-04-16T09:58:10.903Z,455.63
2019-04-16T09:59:14.948Z,455.63
2019-04-16T10:00:11.009Z,455.63
2019-04-16T10:01:11.071Z,444.38
2019-04-16T10:02:11.127Z,433.13
2019-04-16T10:03:11.187Z,444.38
2019-04-16T10:04:11.251Z,444.38
2019-04-16T10:05:11.307Z,444.38
2019-04-16T10:06:11.366Z,444.38
2019-04-16T10:07:11.430Z,450.00
2019-04-16T10:08:12.618Z,461.25
2019-04-16T10:09:11.565Z,466.88
2019-04-16T10:10:11.604Z,472.50
2019-04-16T10:11:11.665Z,472.50
2019-04-16T10:12:11.764Z,478.13
2019-04-16T10:13:11.784Z,483.75
2019-04-16T10:14:11.868Z,483.75
2019-04-16T10:15:12.550Z,483.75
2019-04-16T10:16:14.364Z,489.38
2019-04-16T10:17:12.949Z,489.38
2019-04-16T10:18:12.312Z,489.38
2019-04-16T10:19:12.665Z,495.00
2019-04-16T10:20:12.703Z,500.63
2019-04-16T10:21:12.824Z,506.25
2019-04-16T10:22:12.340Z,511.88
2019-04-16T10:23:12.705Z,511.88
2019-04-16T10:24:13.579Z,517.50
2019-04-16T10:25:12.874Z,523.13
2019-04-16T10:26:12.780Z,534.38
2019-04-16T10:27:12.811Z,523.13
2019-04-16T10:28:12.695Z,562.50
2019-04-16T10:29:13.334Z,568.13
2019-04-16T10:30:12.805Z,585.00
2019-04-16T10:31:12.896Z,618.75
2019-04-16T10:32:12.927Z,697.50
2019-04-16T10:33:13.000Z,1096.88
2019-04-16T10:34:13.101Z,1625.63
2019-04-16T10:35:13.540Z,1783.13
2019-04-16T10:36:13.168Z,1811.25
2019-04-16T10:37:13.255Z,1850.63
2019-04-16T10:38:13.905Z,1856.25
2019-04-16T10:39:13.864Z,1839.38
2019-04-16T10:40:13.422Z,1850.63
2019-04-16T10:41:13.575Z,1861.88
2019-04-16T10:42:13.914Z,1884.38
2019-04-16T10:43:13.610Z,1929.38
2019-04-16T10:44:13.676Z,1957.50
2019-04-16T10:45:13.737Z,1957.50
2019-04-16T10:46:13.794Z,1974.38
2019-04-16T10:47:16.705Z,1985.63
2019-04-16T10:48:13.946Z,1974.38
2019-04-16T10:49:15.019Z,1951.88
2019-04-16T10:50:15.326Z,1963.13
2019-04-16T10:51:15.519Z,1968.75
2019-04-16T10:52:14.183Z,1901.25
2019-04-16T10:53:14.272Z,1743.75
2019-04-16T10:54:14.320Z,1884.38
2019-04-16T10:55:14.377Z,1901.25
2019-04-16T10:56:14.488Z,1873.13
2019-04-16T10:57:14.530Z,1929.38
2019-04-16T10:58:14.585Z,1946.25
2019-04-16T10:59:14.645Z,1901.25
2019-04-16T11:00:14.742Z,1181.25
2019-04-16T11:01:14.790Z,1861.88
2019-04-16T11:02:14.839Z,860.63
2019-04-16T11:03:14.908Z,1777.50
2019-04-16T11:04:15.595Z,1704.38
2019-04-16T11:05:18.711Z,1715.63
2019-04-16T11:06:15.100Z,1715.63
2019-04-16T11:07:15.194Z,894.38
2019-04-16T11:08:15.268Z,821.25
2019-04-16T11:09:15.314Z,1586.25
2019-04-16T11:10:15.436Z,1040.63
2019-04-16T11:11:15.431Z,1012.50
2019-04-16T11:12:15.512Z,1063.13
2019-04-16T11:13:15.561Z,1546.88
2019-04-16T11:14:15.632Z,1816.88
2019-04-16T11:15:15.694Z,1659.38
2019-04-16T11:16:15.779Z,1597.50
2019-04-16T11:17:15.823Z,1743.75
2019-04-16T11:18:15.888Z,1580.63
2019-04-16T11:19:16.031Z,984.38
2019-04-16T11:20:16.060Z,1614.38
2019-04-16T11:21:16.091Z,871.88
2019-04-16T11:22:16.146Z,888.75
2019-04-16T11:23:16.478Z,928.13
2019-04-16T11:24:16.375Z,939.38
2019-04-16T11:25:16.757Z,826.88
2019-04-16T11:26:16.403Z,765.00
2019-04-16T11:27:16.473Z,736.88
2019-04-16T11:28:16.556Z,748.13
2019-04-16T11:29:16.599Z,793.13
2019-04-16T11:30:16.659Z,815.63
2019-04-16T11:31:16.735Z,832.50
2019-04-16T11:32:16.813Z,838.13
2019-04-16T11:33:16.849Z,832.50
2019-04-16T11:34:16.976Z,956.25
2019-04-16T11:35:18.862Z,871.88
2019-04-16T11:36:20.298Z,826.88
2019-04-16T11:37:17.161Z,855.00
2019-04-16T11:38:17.866Z,922.50
2019-04-16T11:39:17.227Z,1012.50
2019-04-16T11:40:17.295Z,1175.63
2019-04-16T11:41:17.352Z,1203.75
2019-04-16T11:42:17.453Z,1496.25
2019-04-16T11:43:17.515Z,1996.88
2019-04-16T11:44:17.556Z,1282.50
2019-04-16T11:45:17.643Z,1530.00
2019-04-16T11:46:17.707Z,1372.50
2019-04-16T11:47:17.830Z,1288.13
2019-04-16T11:48:17.814Z,1215.00
2019-04-16T11:49:18.492Z,1102.50
2019-04-16T11:50:18.129Z,973.13
2019-04-16T11:51:17.989Z,877.50
2019-04-16T11:52:18.089Z,866.25
2019-04-16T11:53:18.108Z,877.50
2019-04-16T11:54:18.187Z,883.13
2019-04-16T11:55:18.234Z,849.38
2019-04-16T11:56:22.269Z,804.38
2019-04-16T11:57:18.366Z,798.75
2019-04-16T11:58:18.423Z,815.63
2019-04-16T11:59:18.526Z,849.38
2019-04-16T12:00:18.606Z,888.75
2019-04-16T12:01:18.637Z,916.88
2019-04-16T12:02:18.700Z,916.88
2019-04-16T12:03:18.741Z,939.38
2019-04-16T12:04:18.810Z,984.38
2019-04-16T12:05:18.907Z,1040.63
2019-04-16T12:06:27.741Z,1012.50
2019-04-16T12:07:18.991Z,939.38
2019-04-16T12:08:19.098Z,871.88
2019-04-16T12:09:19.161Z,832.50
2019-04-16T12:10:19.182Z,843.75
2019-04-16T12:11:19.343Z,928.13
2019-04-16T12:12:19.323Z,1935.00
2019-04-16T12:13:19.366Z,1113.75
2019-04-16T12:14:29.884Z,1102.50
2019-04-16T12:15:19.506Z,1068.75
2019-04-16T12:16:21.191Z,1051.88
2019-04-16T12:17:19.638Z,1046.25
2019-04-16T12:18:19.709Z,1063.13
2019-04-16T12:19:19.772Z,1113.75
2019-04-16T12:20:19.805Z,1108.13
2019-04-16T12:21:19.879Z,1091.25
2019-04-16T12:22:19.931Z,1051.88
2019-04-16T12:23:20.004Z,1001.25
2019-04-16T12:24:20.078Z,1023.75
2019-04-16T12:25:20.124Z,1102.50
2019-04-16T12:26:20.213Z,2092.50
2019-04-16T12:27:20.281Z,1805.63
2019-04-16T12:28:20.316Z,1451.25
2019-04-16T12:29:23.147Z,2458.13
2019-04-16T12:30:20.434Z,1451.25
2019-04-16T12:31:20.501Z,2947.50
2019-04-16T12:32:20.563Z,1136.25
2019-04-16T12:33:20.666Z,973.13
2019-04-16T12:34:20.682Z,888.75
2019-04-16T12:35:20.793Z,860.63
2019-04-16T12:36:20.860Z,832.50
2019-04-16T12:37:20.923Z,815.63
2019-04-16T12:38:20.975Z,826.88
2019-04-16T12:39:21.001Z,888.75
2019-04-16T12:40:21.254Z,815.63
2019-04-16T12:41:21.139Z,804.38
2019-04-16T12:42:21.246Z,810.00
2019-04-16T12:43:21.300Z,798.75
2019-04-16T12:44:24.161Z,753.75
2019-04-16T12:45:22.038Z,742.50
2019-04-16T12:46:21.442Z,725.63